createdAt,value
2019-01-18T00:00:59.328Z,95.09
2019-01-18T00:01:59.314Z,96.57
2019-01-18T00:02:59.323Z,96.72
2019-01-18T00:03:59.291Z,96.83
2019-01-18T00:04:59.285Z,96.47
2019-01-18T00:05:59.309Z,96.57
2019-01-18T00:06:59.266Z,97.09
2019-01-18T00:07:59.249Z,96.47
2019-01-18T00:08:59.247Z,96.78
2019-01-18T00:09:59.242Z,96.99
2019-01-18T00:10:59.221Z,96.57
2019-01-18T00:11:59.253Z,96.67
2019-01-18T00:12:59.201Z,95.94
2019-01-18T00:13:59.192Z,95.94
2019-01-18T00:14:59.183Z,95.62
2019-01-18T00:15:59.172Z,95.67
2019-01-18T00:16:59.154Z,96.57
2019-01-18T00:17:59.177Z,96.51
2019-01-18T00:18:59.137Z,96.57
2019-01-18T00:19:59.127Z,97.35
2019-01-18T00:20:59.126Z,97.77
2019-01-18T00:21:59.138Z,97.67
2019-01-18T00:22:59.105Z,98.51
2019-01-18T00:23:59.118Z,98.19
2019-01-18T00:24:59.076Z,97.88
2019-01-18T00:25:59.058Z,97.99
2019-01-18T00:26:59.060Z,98.47
2019-01-18T00:27:59.051Z,98.93
2019-01-18T00:28:59.035Z,98.61
2019-01-18T00:29:59.059Z,97.14
2019-01-18T00:30:59.017Z,97.25
2019-01-18T00:31:59.043Z,97.03
2019-01-18T00:32:59.242Z,96.93
2019-01-18T00:33:58.986Z,96.93
2019-01-18T00:34:58.968Z,96.83
2019-01-18T00:35:58.955Z,95.77
2019-01-18T00:36:58.990Z,95.03
2019-01-18T00:37:58.947Z,93.98
2019-01-18T00:38:58.927Z,92.18
2019-01-18T00:39:58.926Z,91.86
2019-01-18T00:40:58.903Z,91.86
2019-01-18T00:41:58.891Z,90.92
2019-01-18T00:42:58.916Z,91.76
2019-01-18T00:43:58.908Z,92.18
2019-01-18T00:44:58.862Z,91.91
2019-01-18T00:45:58.860Z,92.54
2019-01-18T00:46:58.839Z,92.22
2019-01-18T00:47:58.828Z,92.02
2019-01-18T00:48:58.818Z,91.80
2019-01-18T00:49:58.849Z,92.27
2019-01-18T00:50:58.795Z,91.74
2019-01-18T00:51:58.802Z,91.21
2019-01-18T00:52:58.783Z,91.31
2019-01-18T00:53:58.772Z,90.69
2019-01-18T00:54:58.757Z,91.11
2019-01-18T00:55:58.778Z,91.25
2019-01-18T00:56:58.733Z,91.25
2019-01-18T00:57:58.761Z,91.46
2019-01-18T00:58:58.712Z,91.57
2019-01-18T00:59:58.704Z,92.52
2019-01-18T01:00:58.699Z,91.61
2019-01-18T01:01:58.686Z,92.14
2019-01-18T01:02:58.675Z,92.03
2019-01-18T01:03:58.702Z,92.14
2019-01-18T01:04:58.659Z,92.07
2019-01-18T01:05:58.640Z,91.97
2019-01-18T01:06:58.625Z,91.55
2019-01-18T01:07:58.623Z,91.02
2019-01-18T01:08:58.612Z,91.48
2019-01-18T01:09:58.645Z,92.43
2019-01-18T01:10:58.587Z,92.65
2019-01-18T01:11:58.580Z,92.01
2019-01-18T01:12:58.572Z,92.37
2019-01-18T01:13:58.559Z,92.05
2019-01-18T01:14:58.556Z,91.94
2019-01-18T01:15:58.584Z,91.84
2019-01-18T01:16:58.550Z,92.69
2019-01-18T01:17:58.529Z,93.11
2019-01-18T01:18:58.506Z,92.90
2019-01-18T01:19:58.501Z,92.58
2019-01-18T01:20:58.500Z,93.01
2019-01-18T01:21:58.506Z,93.11
2019-01-18T01:22:58.474Z,93.43
2019-01-18T01:23:58.444Z,92.79
2019-01-18T01:24:58.444Z,92.47
2019-01-18T01:25:58.439Z,92.05
2019-01-18T01:26:58.413Z,92.90
2019-01-18T01:27:58.440Z,92.11
2019-01-18T01:28:58.395Z,92.69
2019-01-18T01:29:58.383Z,92.26
2019-01-18T01:30:58.380Z,91.52
2019-01-18T01:31:58.366Z,91.56
2019-01-18T01:32:58.356Z,90.99
2019-01-18T01:33:58.402Z,91.52
2019-01-18T01:34:58.340Z,91.38
2019-01-18T01:35:58.326Z,90.74
2019-01-18T01:36:58.318Z,90.74
2019-01-18T01:37:58.303Z,90.36
2019-01-18T01:38:58.334Z,90.72
2019-01-18T01:39:58.328Z,90.82
2019-01-18T01:40:58.266Z,90.82
2019-01-18T01:41:58.259Z,91.39
2019-01-18T01:42:58.257Z,91.78
2019-01-18T01:43:58.248Z,92.56
2019-01-18T01:44:58.228Z,92.41
2019-01-18T01:45:58.255Z,91.56
2019-01-18T01:46:58.205Z,91.71
2019-01-18T01:47:58.195Z,91.50
2019-01-18T01:48:58.199Z,92.13
2019-01-18T01:49:58.176Z,92.13
2019-01-18T01:50:58.165Z,92.13
2019-01-18T01:51:58.192Z,92.18
2019-01-18T01:52:58.143Z,92.13
2019-01-18T01:53:58.146Z,91.33
2019-01-18T01:54:58.136Z,91.75
2019-01-18T01:55:58.111Z,92.00
2019-01-18T01:56:58.103Z,91.96
2019-01-18T01:57:58.132Z,91.47
2019-01-18T01:58:58.084Z,91.47
2019-01-18T01:59:58.070Z,91.69
2019-01-18T02:00:58.071Z,91.90
2019-01-18T02:01:58.102Z,91.90
2019-01-18T02:02:58.044Z,92.54
2019-01-18T02:03:58.031Z,92.18
2019-01-18T02:04:58.022Z,91.37
2019-01-18T02:05:58.010Z,92.00
2019-01-18T02:06:58.001Z,91.47
2019-01-18T02:07:58.038Z,91.69
2019-01-18T02:08:57.976Z,91.83
2019-01-18T02:09:57.965Z,91.20
2019-01-18T02:10:57.955Z,91.63
2019-01-18T02:11:57.945Z,91.94
2019-01-18T02:12:57.941Z,92.58
2019-01-18T02:13:57.979Z,92.36
2019-01-18T02:14:57.916Z,92.15
2019-01-18T02:15:57.904Z,92.26
2019-01-18T02:16:57.894Z,92.32
2019-01-18T02:17:57.883Z,91.20
2019-01-18T02:18:57.876Z,91.94
2019-01-18T02:19:57.915Z,91.52
2019-01-18T02:20:57.859Z,91.83
2019-01-18T02:21:57.848Z,91.63
2019-01-18T02:22:57.838Z,91.52
2019-01-18T02:23:57.829Z,91.63
2019-01-18T02:24:57.831Z,91.30
2019-01-18T02:25:57.846Z,91.20
2019-01-18T02:26:57.804Z,91.66
2019-01-18T02:27:57.786Z,91.56
2019-01-18T02:28:57.789Z,91.45
2019-01-18T02:29:57.789Z,90.88
2019-01-18T02:30:57.755Z,91.20
2019-01-18T02:31:57.801Z,87.87
2019-01-18T02:32:57.746Z,88.93
2019-01-18T02:33:57.751Z,89.29
2019-01-18T02:34:57.719Z,88.23
2019-01-18T02:35:57.702Z,88.44
2019-01-18T02:36:57.693Z,88.87
2019-01-18T02:37:57.723Z,88.09
2019-01-18T02:38:57.668Z,86.35
2019-01-18T02:39:57.656Z,85.22
2019-01-18T02:40:57.650Z,86.60
2019-01-18T02:41:57.646Z,87.59
2019-01-18T02:42:57.624Z,84.80
2019-01-18T02:43:57.654Z,84.80
2019-01-18T02:44:57.608Z,82.89
2019-01-18T02:45:57.593Z,82.68
2019-01-18T02:46:57.581Z,83.56
2019-01-18T02:47:57.577Z,85.43
2019-01-18T02:48:57.557Z,86.54
2019-01-18T02:49:57.585Z,87.27
2019-01-18T02:50:57.539Z,87.95
2019-01-18T02:51:57.527Z,88.63
2019-01-18T02:52:57.523Z,89.58
2019-01-18T02:53:57.509Z,89.16
2019-01-18T02:54:57.498Z,88.95
2019-01-18T02:55:57.522Z,89.69
2019-01-18T02:56:57.473Z,89.79
2019-01-18T02:57:57.467Z,89.79
2019-01-18T02:58:57.451Z,89.79
2019-01-18T03:00:04.409Z,90.05
2019-01-18T03:00:58.452Z,89.73
2019-01-18T03:01:57.459Z,90.47
2019-01-18T03:02:57.407Z,89.94
2019-01-18T03:03:57.400Z,89.94
2019-01-18T03:04:57.389Z,91.00
2019-01-18T03:05:57.377Z,91.00
2019-01-18T03:06:57.382Z,91.22
2019-01-18T03:07:57.394Z,90.90
2019-01-18T03:08:57.351Z,90.58
2019-01-18T03:09:57.337Z,90.96
2019-01-18T03:10:57.326Z,91.07
2019-01-18T03:11:57.315Z,90.86
2019-01-18T03:12:57.308Z,90.96
2019-01-18T03:13:57.339Z,91.28
2019-01-18T03:14:57.286Z,91.17
2019-01-18T03:15:57.272Z,91.17
2019-01-18T03:16:57.262Z,90.18
2019-01-18T03:17:57.253Z,90.08
2019-01-18T03:18:57.243Z,89.22
2019-01-18T03:19:57.279Z,89.48
2019-01-18T03:20:57.231Z,89.22
2019-01-18T03:21:57.212Z,86.68
2019-01-18T03:22:57.201Z,87.32
2019-01-18T03:23:57.188Z,88.90
2019-01-18T03:24:57.174Z,89.65
2019-01-18T03:25:57.204Z,89.54
2019-01-18T03:26:57.155Z,90.11
2019-01-18T03:27:57.157Z,90.28
2019-01-18T03:28:57.143Z,89.79
2019-01-18T03:29:57.128Z,90.11
2019-01-18T03:30:57.123Z,89.79
2019-01-18T03:31:57.158Z,89.79
2019-01-18T03:32:57.097Z,89.51
2019-01-18T03:33:57.095Z,89.84
2019-01-18T03:34:57.072Z,90.05
2019-01-18T03:35:57.061Z,89.09
2019-01-18T03:36:57.058Z,89.56
2019-01-18T03:37:57.089Z,89.24
2019-01-18T03:38:57.031Z,88.56
2019-01-18T03:39:57.023Z,87.85
2019-01-18T03:40:57.010Z,88.81
2019-01-18T03:41:57.003Z,89.34
2019-01-18T03:42:57.001Z,89.45
2019-01-18T03:43:57.017Z,89.87
2019-01-18T03:44:56.962Z,90.09
2019-01-18T03:45:56.956Z,90.09
2019-01-18T03:46:56.948Z,90.41
2019-01-18T03:47:56.936Z,89.92
2019-01-18T03:48:56.937Z,90.45
2019-01-18T03:49:56.954Z,91.30
2019-01-18T03:50:56.902Z,91.47
2019-01-18T03:51:56.894Z,89.87
2019-01-18T03:52:56.898Z,89.45
2019-01-18T03:53:56.883Z,90.09
2019-01-18T03:54:56.860Z,89.45
2019-01-18T03:55:56.894Z,89.66
2019-01-18T03:56:56.838Z,89.45
2019-01-18T03:57:56.828Z,90.30
2019-01-18T03:58:56.846Z,89.87
2019-01-18T03:59:56.823Z,89.98
2019-01-18T04:00:56.805Z,90.09
2019-01-18T04:01:56.846Z,90.19
2019-01-18T04:02:56.796Z,90.37
2019-01-18T04:03:56.770Z,90.16
2019-01-18T04:04:56.769Z,90.05
2019-01-18T04:05:56.745Z,89.73
2019-01-18T04:06:56.749Z,89.87
2019-01-18T04:07:56.761Z,90.09
2019-01-18T04:08:56.715Z,90.41
2019-01-18T04:09:56.712Z,90.19
2019-01-18T04:10:56.701Z,89.98
2019-01-18T04:11:56.686Z,89.87
2019-01-18T04:12:56.676Z,90.09
2019-01-18T04:13:56.710Z,89.20
2019-01-18T04:14:56.650Z,88.56
2019-01-18T04:15:56.654Z,88.45
2019-01-18T04:16:56.643Z,88.92
2019-01-18T04:17:56.626Z,89.56
2019-01-18T04:18:56.610Z,89.24
2019-01-18T04:19:56.646Z,89.34
2019-01-18T04:20:56.592Z,89.56
2019-01-18T04:21:56.581Z,90.13
2019-01-18T04:22:56.573Z,89.60
2019-01-18T04:23:56.570Z,89.39
2019-01-18T04:24:56.559Z,89.70
2019-01-18T04:25:56.591Z,89.95
2019-01-18T04:26:56.539Z,90.17
2019-01-18T04:27:56.523Z,90.17
2019-01-18T04:28:56.520Z,90.38
2019-01-18T04:29:56.497Z,90.13
2019-01-18T04:30:56.496Z,90.23
2019-01-18T04:31:56.520Z,90.06
2019-01-18T04:32:56.467Z,89.81
2019-01-18T04:33:56.465Z,90.28
2019-01-18T04:34:56.449Z,90.06
2019-01-18T04:35:56.457Z,90.28
2019-01-18T04:36:56.433Z,90.55
2019-01-18T04:37:56.457Z,90.70
2019-01-18T04:38:56.404Z,91.44
2019-01-18T04:39:56.395Z,91.19
2019-01-18T04:40:56.389Z,90.88
2019-01-18T04:41:56.413Z,90.02
2019-01-18T04:42:56.382Z,90.55
2019-01-18T04:43:56.359Z,90.02
2019-01-18T04:44:56.354Z,90.02
2019-01-18T04:45:56.347Z,90.02
2019-01-18T04:46:56.371Z,89.49
2019-01-18T04:47:56.323Z,89.70
2019-01-18T04:48:56.313Z,89.17
2019-01-18T04:49:56.292Z,88.75
2019-01-18T04:50:56.286Z,89.60
2019-01-18T04:51:56.276Z,90.34
2019-01-18T04:52:56.307Z,89.81
2019-01-18T04:53:56.272Z,90.06
2019-01-18T04:54:56.240Z,90.55
2019-01-18T04:55:56.228Z,90.28
2019-01-18T04:56:56.237Z,90.02
2019-01-18T04:57:56.213Z,90.38
2019-01-18T04:58:56.238Z,90.17
2019-01-18T04:59:56.191Z,89.92
2019-01-18T05:00:56.179Z,89.92
2019-01-18T05:01:56.169Z,90.28
2019-01-18T05:02:56.181Z,89.85
2019-01-18T05:03:56.188Z,89.95
2019-01-18T05:04:56.138Z,90.38
2019-01-18T05:05:56.139Z,90.23
2019-01-18T05:06:56.117Z,90.23
2019-01-18T05:07:56.106Z,90.13
2019-01-18T05:08:56.111Z,89.85
2019-01-18T05:09:56.132Z,90.49
2019-01-18T05:10:56.080Z,90.06
2019-01-18T05:11:56.073Z,89.81
2019-01-18T05:12:56.062Z,88.68
2019-01-18T05:13:56.051Z,88.15
2019-01-18T05:14:56.048Z,87.58
2019-01-18T05:15:56.072Z,86.77
2019-01-18T05:16:56.028Z,87.37
2019-01-18T05:17:56.017Z,87.79
2019-01-18T05:18:56.000Z,87.47
2019-01-18T05:19:55.987Z,86.79
2019-01-18T05:20:55.980Z,88.00
2019-01-18T05:21:56.000Z,88.53
2019-01-18T05:22:55.960Z,88.18
2019-01-18T05:23:55.987Z,89.39
2019-01-18T05:24:55.950Z,89.66
2019-01-18T05:25:55.933Z,89.24
2019-01-18T05:26:55.918Z,89.34
2019-01-18T05:27:55.908Z,89.03
2019-01-18T05:28:55.935Z,89.13
2019-01-18T05:29:55.885Z,89.34
2019-01-18T05:30:55.882Z,89.34
2019-01-18T05:31:55.874Z,89.45
2019-01-18T05:32:55.863Z,89.66
2019-01-18T05:33:55.852Z,89.56
2019-01-18T05:34:55.885Z,89.66
2019-01-18T05:35:55.882Z,89.98
2019-01-18T05:36:55.815Z,90.05
2019-01-18T05:37:55.825Z,89.51
2019-01-18T05:38:55.806Z,89.20
2019-01-18T05:39:55.788Z,89.20
2019-01-18T05:40:55.793Z,89.62
2019-01-18T05:41:55.812Z,88.20
2019-01-18T05:42:55.754Z,87.88
2019-01-18T05:43:55.744Z,88.13
2019-01-18T05:44:55.780Z,88.31
2019-01-18T05:45:55.737Z,88.31
2019-01-18T05:46:55.711Z,88.24
2019-01-18T05:47:55.705Z,87.46
2019-01-18T05:48:55.695Z,86.61
2019-01-18T05:49:55.684Z,85.87
2019-01-18T05:50:55.709Z,85.97
2019-01-18T05:51:55.720Z,85.66
2019-01-18T05:52:55.655Z,85.44
2019-01-18T05:53:55.638Z,85.55
2019-01-18T05:54:55.636Z,86.61
2019-01-18T05:55:55.620Z,87.57
2019-01-18T05:56:55.649Z,87.88
2019-01-18T05:57:55.602Z,86.08
2019-01-18T05:58:55.596Z,87.78
2019-01-18T05:59:55.582Z,86.72
2019-01-18T06:00:55.723Z,86.72
2019-01-18T06:01:55.554Z,86.61
2019-01-18T06:02:55.586Z,86.29
2019-01-18T06:03:55.535Z,86.29
2019-01-18T06:04:55.559Z,86.93
2019-01-18T06:05:55.549Z,88.20
2019-01-18T06:06:55.503Z,89.05
2019-01-18T06:07:55.493Z,88.84
2019-01-18T06:08:55.525Z,86.61
2019-01-18T06:09:55.488Z,87.57
2019-01-18T06:10:55.463Z,88.42
2019-01-18T06:11:55.472Z,88.73
2019-01-18T06:12:55.444Z,88.31
2019-01-18T06:13:55.464Z,88.31
2019-01-18T06:14:55.417Z,86.25
2019-01-18T06:15:55.409Z,86.04
2019-01-18T06:16:55.401Z,87.21
2019-01-18T06:17:55.407Z,88.10
2019-01-18T06:18:55.418Z,88.52
2019-01-18T06:19:55.367Z,87.25
2019-01-18T06:20:55.356Z,86.57
2019-01-18T06:21:55.344Z,87.21
2019-01-18T06:22:55.341Z,85.41
2019-01-18T06:23:55.359Z,82.86
2019-01-18T06:24:55.359Z,84.34
2019-01-18T06:25:55.306Z,85.30
2019-01-18T06:26:55.297Z,86.79
2019-01-18T06:27:55.328Z,84.77
2019-01-18T06:28:55.274Z,83.92
2019-01-18T06:29:55.293Z,83.67
2019-01-18T06:31:01.580Z,81.02
2019-01-18T06:31:56.238Z,76.46
2019-01-18T06:32:55.233Z,78.47
2019-01-18T06:33:55.887Z,80.60
2019-01-18T06:34:55.217Z,82.33
2019-01-18T06:35:55.201Z,82.97
2019-01-18T06:36:55.247Z,82.97
2019-01-18T06:37:55.178Z,83.18
2019-01-18T06:38:55.216Z,82.37
2019-01-18T06:39:55.161Z,77.55
2019-01-18T06:40:55.147Z,79.57
2019-01-18T06:41:55.136Z,79.89
2019-01-18T06:42:55.185Z,81.20
2019-01-18T06:43:55.113Z,80.99
2019-01-18T06:44:55.103Z,81.98
2019-01-18T06:45:55.094Z,82.93
2019-01-18T06:46:55.083Z,81.23
2019-01-18T06:47:55.072Z,81.34
2019-01-18T06:48:55.119Z,80.49
2019-01-18T06:49:55.054Z,78.05
2019-01-18T06:50:55.077Z,76.53
2019-01-18T06:51:55.029Z,74.30
2019-01-18T06:52:55.018Z,75.43
2019-01-18T06:53:55.016Z,74.79
2019-01-18T06:54:55.000Z,75.43
2019-01-18T06:55:55.002Z,75.89
2019-01-18T06:56:55.016Z,75.46
2019-01-18T06:57:54.968Z,75.89
2019-01-18T06:58:54.960Z,77.20
2019-01-18T06:59:54.947Z,77.51
2019-01-18T07:00:54.940Z,78.30
2019-01-18T07:01:54.944Z,75.50
2019-01-18T07:02:54.951Z,73.59
2019-01-18T07:03:54.904Z,75.29
2019-01-18T07:04:54.895Z,77.76
2019-01-18T07:05:54.889Z,80.42
2019-01-18T07:06:54.878Z,81.52
2019-01-18T07:07:54.884Z,81.34
2019-01-18T07:08:54.889Z,81.34
2019-01-18T07:09:54.842Z,81.45
2019-01-18T07:10:54.836Z,82.20
2019-01-18T07:11:54.824Z,82.45
2019-01-18T07:12:54.808Z,82.20
2019-01-18T07:13:54.810Z,82.45
2019-01-18T07:14:54.829Z,82.45
2019-01-18T07:15:54.775Z,83.94
2019-01-18T07:16:54.763Z,86.38
2019-01-18T07:17:54.758Z,87.98
2019-01-18T07:18:54.765Z,87.93
2019-01-18T07:19:54.735Z,88.79
2019-01-18T07:20:54.775Z,87.62
2019-01-18T07:21:54.712Z,86.24
2019-01-18T07:22:54.700Z,86.17
2019-01-18T07:23:54.693Z,85.53
2019-01-18T07:24:54.684Z,85.31
2019-01-18T07:25:54.670Z,85.35
2019-01-18T07:26:54.716Z,85.46
2019-01-18T07:27:54.647Z,85.07
2019-01-18T07:28:54.638Z,84.86
2019-01-18T07:29:54.632Z,84.22
2019-01-18T07:30:54.619Z,84.01
2019-01-18T07:31:54.611Z,82.59
2019-01-18T07:32:54.646Z,82.69
2019-01-18T07:33:54.588Z,82.41
2019-01-18T07:34:54.576Z,83.12
2019-01-18T07:35:54.566Z,82.59
2019-01-18T07:36:54.562Z,82.90
2019-01-18T07:37:54.549Z,83.90
2019-01-18T07:39:00.388Z,84.33
2019-01-18T07:39:55.530Z,81.41
2019-01-18T07:40:54.513Z,80.57
2019-01-18T07:41:54.508Z,81.13
2019-01-18T07:42:54.554Z,81.56
2019-01-18T07:43:54.508Z,82.52
2019-01-18T07:44:54.472Z,83.09
2019-01-18T07:45:54.483Z,79.93
2019-01-18T07:46:54.456Z,79.08
2019-01-18T07:47:54.442Z,77.91
2019-01-18T07:48:54.475Z,74.04
2019-01-18T07:49:54.420Z,76.31
2019-01-18T07:50:54.419Z,75.03
2019-01-18T07:51:54.452Z,75.67
2019-01-18T07:52:54.425Z,76.31
2019-01-18T07:53:54.379Z,78.30
2019-01-18T07:54:54.374Z,78.51
2019-01-18T07:55:54.358Z,78.40
2019-01-18T07:56:54.354Z,77.97
2019-01-18T07:57:54.397Z,79.18
2019-01-18T07:58:54.330Z,79.82
2019-01-18T07:59:54.319Z,80.81
2019-01-18T08:00:54.332Z,80.35
2019-01-18T08:01:54.301Z,79.93
2019-01-18T08:02:54.330Z,80.35
2019-01-18T08:03:54.291Z,78.44
2019-01-18T08:04:54.269Z,79.71
2019-01-18T08:05:54.259Z,80.49
2019-01-18T08:06:54.251Z,81.38
2019-01-18T08:07:54.238Z,81.92
2019-01-18T08:08:54.268Z,82.56
2019-01-18T08:09:54.233Z,82.38
2019-01-18T08:10:54.222Z,82.91
2019-01-18T08:11:54.198Z,83.23
2019-01-18T08:12:54.230Z,83.23
2019-01-18T08:13:54.198Z,83.12
2019-01-18T08:14:54.169Z,82.70
2019-01-18T08:15:54.162Z,82.17
2019-01-18T08:16:54.170Z,82.38
2019-01-18T08:17:54.189Z,83.34
2019-01-18T08:18:54.126Z,83.98
2019-01-18T08:19:54.115Z,83.76
2019-01-18T08:20:54.123Z,83.27
2019-01-18T08:21:54.102Z,82.59
2019-01-18T08:22:54.084Z,82.27
2019-01-18T08:23:54.113Z,83.55
2019-01-18T08:24:54.069Z,83.06
2019-01-18T08:25:54.070Z,82.42
2019-01-18T08:26:54.043Z,81.52
2019-01-18T08:27:54.045Z,82.48
2019-01-18T08:28:54.027Z,82.06
2019-01-18T08:29:54.050Z,82.48
2019-01-18T08:30:54.047Z,82.06
2019-01-18T08:31:54.022Z,82.48
2019-01-18T08:32:53.986Z,83.16
2019-01-18T08:33:53.976Z,83.16
2019-01-18T08:34:53.997Z,82.52
2019-01-18T08:35:53.955Z,83.06
2019-01-18T08:36:53.989Z,83.69
2019-01-18T08:37:53.931Z,83.80
2019-01-18T08:38:53.934Z,84.23
2019-01-18T08:39:53.914Z,84.01
2019-01-18T08:40:53.936Z,84.01
2019-01-18T08:41:53.897Z,83.59
2019-01-18T08:42:53.918Z,82.91
2019-01-18T08:43:53.912Z,83.12
2019-01-18T08:44:53.863Z,83.48
2019-01-18T08:45:53.889Z,83.06
2019-01-18T08:46:53.861Z,82.70
2019-01-18T08:47:53.839Z,82.48
2019-01-18T08:48:53.861Z,83.16
2019-01-18T08:49:53.813Z,82.73
2019-01-18T08:50:53.801Z,83.06
2019-01-18T08:51:53.795Z,81.52
2019-01-18T08:52:53.804Z,82.38
2019-01-18T08:53:53.768Z,82.70
2019-01-18T08:54:53.811Z,83.34
2019-01-18T08:55:53.758Z,84.01
2019-01-18T08:56:53.783Z,83.09
2019-01-18T08:57:53.747Z,80.71
2019-01-18T08:58:53.724Z,79.43
2019-01-18T08:59:53.709Z,79.64
2019-01-18T09:00:53.709Z,79.53
2019-01-18T09:01:53.687Z,80.53
2019-01-18T09:02:53.719Z,81.77
2019-01-18T09:03:53.699Z,81.45
2019-01-18T09:04:53.660Z,80.60
2019-01-18T09:05:53.645Z,79.32
2019-01-18T09:06:53.636Z,80.14
2019-01-18T09:07:53.633Z,78.22
2019-01-18T09:08:53.701Z,76.81
2019-01-18T09:09:53.614Z,77.69
2019-01-18T09:10:53.603Z,78.86
2019-01-18T09:11:53.586Z,79.61
2019-01-18T09:12:53.577Z,79.00
2019-01-18T09:13:53.590Z,79.82
2019-01-18T09:14:53.608Z,77.58
2019-01-18T09:15:53.543Z,77.91
2019-01-18T09:16:53.537Z,77.44
2019-01-18T09:17:53.575Z,76.17
2019-01-18T09:18:53.519Z,77.97
2019-01-18T09:19:53.514Z,77.91
2019-01-18T09:20:53.542Z,76.17
2019-01-18T09:21:53.481Z,73.37
2019-01-18T09:22:53.502Z,73.26
2019-01-18T09:23:53.515Z,72.80
2019-01-18T09:24:53.458Z,72.06
2019-01-18T09:25:53.445Z,72.80
2019-01-18T09:26:53.465Z,73.44
2019-01-18T09:27:53.427Z,72.49
2019-01-18T09:28:53.423Z,72.52
2019-01-18T09:29:53.471Z,73.16
2019-01-18T09:30:53.398Z,73.26
2019-01-18T09:31:53.393Z,72.52
2019-01-18T09:32:53.384Z,72.27
2019-01-18T09:33:53.374Z,71.95
2019-01-18T09:34:53.381Z,71.74
2019-01-18T09:35:53.517Z,71.42
2019-01-18T09:36:53.346Z,70.47
2019-01-18T09:37:53.339Z,70.04
2019-01-18T09:38:53.355Z,70.15
2019-01-18T09:39:53.310Z,70.25
2019-01-18T09:40:53.355Z,69.34
2019-01-18T09:41:53.300Z,66.91
2019-01-18T09:42:53.295Z,65.04
2019-01-18T09:43:53.806Z,61.38
2019-01-18T09:44:53.255Z,57.64
2019-01-18T09:45:53.276Z,55.64
2019-01-18T09:46:53.275Z,54.04
2019-01-18T09:47:53.235Z,53.91
2019-01-18T09:48:53.224Z,52.94
2019-01-18T09:49:53.204Z,53.59
2019-01-18T09:50:53.187Z,52.50
2019-01-18T09:51:53.175Z,51.84
2019-01-18T09:52:53.208Z,47.75
2019-01-18T09:53:53.179Z,48.36
2019-01-18T09:54:53.144Z,48.99
2019-01-18T09:55:53.145Z,48.48
2019-01-18T09:56:53.131Z,46.53
2019-01-18T09:57:53.111Z,46.01
2019-01-18T09:58:53.150Z,44.17
2019-01-18T09:59:53.267Z,45.10
2019-01-18T10:00:53.079Z,46.78
2019-01-18T10:01:53.109Z,47.03
2019-01-18T10:02:53.068Z,45.07
2019-01-18T10:03:53.056Z,44.94
2019-01-18T10:04:53.042Z,45.95
2019-01-18T10:05:53.212Z,43.84
2019-01-18T10:06:53.062Z,42.35
2019-01-18T10:07:53.009Z,43.77
2019-01-18T10:08:53.013Z,44.02
2019-01-18T10:09:52.992Z,45.44
2019-01-18T10:10:52.981Z,44.57
2019-01-18T10:11:53.178Z,44.09
2019-01-18T10:12:53.006Z,43.44
2019-01-18T10:13:52.947Z,41.96
2019-01-18T10:14:52.939Z,43.77
2019-01-18T10:15:52.926Z,42.90
2019-01-18T10:16:52.918Z,42.57
2019-01-18T10:18:00.391Z,45.11
2019-01-18T10:18:53.928Z,48.18
2019-01-18T10:19:52.884Z,49.65
2019-01-18T10:20:52.987Z,49.05
2019-01-18T10:21:52.861Z,48.37
2019-01-18T10:22:52.855Z,49.27
2019-01-18T10:23:52.877Z,50.32
2019-01-18T10:24:52.871Z,50.11
2019-01-18T10:25:52.818Z,50.34
2019-01-18T10:26:52.805Z,51.34
2019-01-18T10:27:52.811Z,50.75
2019-01-18T10:28:52.791Z,50.32
2019-01-18T10:29:52.771Z,56.14
2019-01-18T10:30:52.813Z,61.57
2019-01-18T10:31:56.248Z,64.92
2019-01-18T10:32:52.767Z,66.40
2019-01-18T10:33:52.730Z,68.37
2019-01-18T10:34:52.719Z,69.84
2019-01-18T10:35:52.711Z,69.84
2019-01-18T10:36:52.748Z,70.48
2019-01-18T10:37:52.687Z,69.84
2019-01-18T10:38:52.702Z,69.95
2019-01-18T10:39:52.667Z,70.37
2019-01-18T10:40:52.656Z,70.26
2019-01-18T10:41:52.669Z,70.61
2019-01-18T10:42:52.692Z,71.11
2019-01-18T10:43:52.627Z,70.48
2019-01-18T10:44:52.637Z,70.28
2019-01-18T10:45:52.605Z,66.72
2019-01-18T10:46:52.594Z,61.50
2019-01-18T10:47:52.628Z,61.06
2019-01-18T10:48:52.574Z,61.91
2019-01-18T10:49:52.580Z,64.04
2019-01-18T10:50:52.554Z,64.88
2019-01-18T10:51:52.542Z,63.85
2019-01-18T10:52:52.532Z,61.63
2019-01-18T10:53:52.565Z,59.92
2019-01-18T10:54:52.515Z,58.85
2019-01-18T10:55:52.518Z,58.82
2019-01-18T10:56:52.490Z,58.48
2019-01-18T10:57:52.502Z,58.69
2019-01-18T10:58:52.486Z,59.64
2019-01-18T10:59:52.502Z,59.03
2019-01-18T11:00:52.451Z,58.69
2019-01-18T11:01:52.463Z,60.32
2019-01-18T11:02:52.429Z,61.06
2019-01-18T11:03:52.432Z,60.79
2019-01-18T11:04:52.410Z,59.48
2019-01-18T11:05:52.453Z,58.48
2019-01-18T11:06:52.392Z,59.35
2019-01-18T11:07:52.377Z,60.53
2019-01-18T11:08:52.372Z,61.30
2019-01-18T11:09:52.382Z,61.71
2019-01-18T11:10:52.349Z,61.16
2019-01-18T11:11:52.400Z,61.16
2019-01-18T11:12:52.326Z,60.95
2019-01-18T11:13:52.316Z,61.27
2019-01-18T11:14:52.308Z,61.19
2019-01-18T11:15:52.320Z,61.74
2019-01-18T11:16:52.287Z,62.48
2019-01-18T11:17:52.315Z,62.48
2019-01-18T11:18:52.266Z,62.62
2019-01-18T11:19:52.259Z,62.79
2019-01-18T11:20:52.245Z,62.24
2019-01-18T11:21:52.252Z,61.79
2019-01-18T11:22:52.225Z,61.58
2019-01-18T11:23:52.248Z,60.89
2019-01-18T11:24:52.204Z,59.45
2019-01-18T11:25:52.188Z,58.85
2019-01-18T11:26:52.184Z,58.93
2019-01-18T11:27:52.188Z,59.93
2019-01-18T11:28:52.200Z,60.66
2019-01-18T11:29:52.149Z,60.98
2019-01-18T11:30:52.142Z,60.98
2019-01-18T11:31:52.126Z,61.30
2019-01-18T11:32:52.117Z,60.95
2019-01-18T11:33:52.156Z,61.03
2019-01-18T11:34:52.097Z,60.19
2019-01-18T11:35:52.089Z,58.61
2019-01-18T11:36:56.423Z,56.15
2019-01-18T11:37:53.108Z,54.82
2019-01-18T11:38:52.057Z,52.31
2019-01-18T11:39:52.054Z,50.98
2019-01-18T11:40:52.040Z,49.65
2019-01-18T11:41:52.023Z,48.79
2019-01-18T11:42:52.017Z,48.33
2019-01-18T11:43:52.045Z,48.30
2019-01-18T11:44:51.992Z,47.76
2019-01-18T11:45:51.988Z,46.61
2019-01-18T11:46:51.983Z,46.72
2019-01-18T11:47:51.957Z,48.07
2019-01-18T11:48:51.987Z,47.74
2019-01-18T11:49:51.977Z,48.60
2019-01-18T11:50:51.925Z,47.83
2019-01-18T11:51:51.915Z,48.37
2019-01-18T11:52:51.913Z,49.37
2019-01-18T11:53:51.896Z,47.57
2019-01-18T11:54:51.886Z,48.20
2019-01-18T11:55:51.919Z,47.57
2019-01-18T11:56:51.865Z,47.78
2019-01-18T11:57:51.853Z,46.01
2019-01-18T11:58:51.861Z,46.09
2019-01-18T11:59:51.843Z,45.34
2019-01-18T12:00:51.819Z,47.05
2019-01-18T12:01:51.857Z,44.53
2019-01-18T12:02:51.807Z,43.47
2019-01-18T12:03:51.784Z,42.64
2019-01-18T12:04:51.797Z,40.54
2019-01-18T12:05:51.773Z,41.70
2019-01-18T12:06:51.756Z,38.41
2019-01-18T12:07:51.809Z,38.68
2019-01-18T12:08:51.739Z,36.97
2019-01-18T12:09:51.723Z,36.08
2019-01-18T12:10:51.731Z,37.59
2019-01-18T12:11:51.704Z,39.50
2019-01-18T12:12:51.697Z,37.87
2019-01-18T12:13:51.721Z,38.93
2019-01-18T12:14:51.676Z,36.31
2019-01-18T12:15:51.665Z,38.53
2019-01-18T12:16:51.669Z,38.96
2019-01-18T12:17:51.645Z,42.42
2019-01-18T12:18:51.672Z,46.03
2019-01-18T12:19:51.619Z,48.05
2019-01-18T12:20:51.611Z,49.12
2019-01-18T12:21:51.615Z,50.19
2019-01-18T12:22:51.588Z,49.58
2019-01-18T12:23:51.577Z,50.82
2019-01-18T12:24:51.613Z,51.73
2019-01-18T12:25:51.565Z,49.73
2019-01-18T12:26:51.549Z,49.29
2019-01-18T12:27:51.567Z,51.19
2019-01-18T12:28:51.527Z,50.98
2019-01-18T12:29:51.515Z,49.49
2019-01-18T12:30:51.542Z,49.91
2019-01-18T12:31:51.493Z,49.71
2019-01-18T12:32:51.487Z,49.21
2019-01-18T12:33:51.488Z,49.22
2019-01-18T12:34:51.470Z,48.68
2019-01-18T12:35:51.452Z,48.45
2019-01-18T12:36:52.862Z,48.45
2019-01-18T12:37:52.427Z,47.93
2019-01-18T12:38:51.423Z,48.30
2019-01-18T12:39:51.411Z,48.45
2019-01-18T12:40:51.435Z,49.49
2019-01-18T12:41:51.388Z,50.12
2019-01-18T12:42:51.386Z,53.02
2019-01-18T12:43:51.367Z,56.49
2019-01-18T12:44:51.353Z,58.19
2019-01-18T12:45:51.347Z,58.53
2019-01-18T12:46:51.380Z,58.69
2019-01-18T12:47:51.321Z,60.13
2019-01-18T12:48:51.322Z,59.03
2019-01-18T12:49:51.316Z,58.72
2019-01-18T12:50:51.314Z,57.25
2019-01-18T12:51:51.527Z,58.64
2019-01-18T12:52:51.286Z,57.98